Time;durP1;ratioP1;P1;durP2;ratioP2;P2;SDS_P1;SDS_P2;PMS_P1;PMS_P2;Temp;Humidity;BMP_temperature;BMP_pressure;BME280_temperature;BME280_humidity;BME280_pressure;Samples;Min_cycle;Max_cycle;Signal;HPM_P1;HPM_P2
2023/07/03 00:00:59;;;;;;;12.98;8.18;;;;;;;;;;5015002;28;20104;-77
2023/07/03 00:03:27;;;;;;;13.23;8.57;;;;;;;;;;5015225;28;20054;-77
2023/07/03 00:05:55;;;;;;;12.07;8.60;;;;;;;;;;5013687;28;20397;-76
2023/07/03 00:08:22;;;;;;;10.93;7.68;;;;;;;;;;5013986;28;20080;-76
2023/07/03 00:10:48;;;;;;;11.80;8.50;;;;;;;;;;5014320;28;20077;-77
2023/07/03 00:13:15;;;;;;;12.25;7.90;;;;;;;;;;5014208;28;20098;-77
2023/07/03 00:15:42;;;;;;;13.85;9.35;;;;;;;;;;5013124;28;20373;-77
2023/07/03 00:18:08;;;;;;;12.65;7.93;;;;;;;;;;5013804;28;20052;-78
2023/07/03 00:20:35;;;;;;;11.90;7.78;;;;;;;;;;5013968;28;20046;-77
2023/07/03 00:23:03;;;;;;;11.02;8.48;;;;;;;;;;5014025;28;20053;-78
2023/07/03 00:25:30;;;;;;;11.27;8.07;;;;;;;;;;5005517;28;20077;-78
2023/07/03 00:27:56;;;;;;;12.95;8.88;;;;;;;;;;5013987;28;20078;-77
2023/07/03 00:30:23;;;;;;;11.25;8.63;;;;;;;;;;4998608;28;20125;-77
2023/07/03 00:32:50;;;;;;;12.80;8.43;;;;;;;;;;4996768;28;20077;-76
2023/07/03 00:35:17;;;;;;;13.38;8.25;;;;;;;;;;4998164;28;20041;-79
2023/07/03 00:37:43;;;;;;;11.82;8.57;;;;;;;;;;5006481;28;20126;-78
2023/07/03 00:40:13;;;;;;;12.25;8.68;;;;;;;;;;5015771;28;20124;-78
2023/07/03 00:42:40;;;;;;;10.95;7.90;;;;;;;;;;5018146;28;20049;-78
2023/07/03 00:45:09;;;;;;;12.90;8.68;;;;;;;;;;5016265;28;20129;-79
2023/07/03 00:47:37;;;;;;;12.40;8.30;;;;;;;;;;5015024;28;20052;-78
2023/07/03 00:50:04;;;;;;;13.18;8.45;;;;;;;;;;5017499;28;20046;-78
2023/07/03 00:52:31;;;;;;;12.55;7.95;;;;;;;;;;5008553;28;20117;-78
2023/07/03 00:54:58;;;;;;;12.98;8.55;;;;;;;;;;5007403;28;20080;-77
2023/07/03 00:57:26;;;;;;;12.45;8.32;;;;;;;;;;5012801;28;20045;-77
2023/07/03 00:59:53;;;;;;;12.55;8.20;;;;;;;;;;5015344;28;20141;-76
2023/07/03 01:02:25;;;;;;;11.70;8.00;;;;;;;;;;5015397;28;20089;-78
2023/07/03 01:04:55;;;;;;;13.68;7.95;;;;;;;;;;5008963;28;20046;-77
2023/07/03 01:07:26;;;;;;;12.85;8.55;;;;;;;;;;5008422;28;20046;-77
2023/07/03 01:09:55;;;;;;;11.23;8.23;;;;;;;;;;5015269;28;20077;-78
2023/07/03 01:12:24;;;;;;;13.45;9.45;;;;;;;;;;5016085;28;20416;-77
2023/07/03 01:14:56;;;;;;;11.93;7.93;;;;;;;;;;5015303;28;20060;-78
2023/07/03 01:17:25;;;;;;;13.10;9.05;;;;;;;;;;5015181;28;20137;-78
2023/07/03 01:19:53;;;;;;;13.13;8.88;;;;;;;;;;5015448;28;20069;-77
2023/07/03 01:22:24;;;;;;;13.32;9.05;;;;;;;;;;5015152;28;20137;-77
2023/07/03 01:24:56;;;;;;;13.68;8.27;;;;;;;;;;5015100;28;20165;-77
2023/07/03 01:27:27;;;;;;;13.20;8.50;;;;;;;;;;5015102;28;20046;-77
2023/07/03 01:29:54;;;;;;;13.15;9.05;;;;;;;;;;5020268;28;20541;-77
2023/07/03 01:32:24;;;;;;;13.25;9.13;;;;;;;;;;5019888;28;20080;-78
2023/07/03 01:34:54;;;;;;;13.88;8.60;;;;;;;;;;5016588;28;20168;-78
2023/07/03 01:37:24;;;;;;;13.68;9.20;;;;;;;;;;5015548;28;20057;-78
2023/07/03 01:39:52;;;;;;;14.55;8.90;;;;;;;;;;5015774;28;20046;-77
2023/07/03 01:42:21;;;;;;;12.88;8.32;;;;;;;;;;5016030;28;20047;-79
2023/07/03 01:44:48;;;;;;;12.77;8.57;;;;;;;;;;5015213;28;20085;-79
2023/07/03 01:47:15;;;;;;;13.75;9.00;;;;;;;;;;5015787;28;20052;-77
2023/07/03 01:49:42;;;;;;;15.07;9.27;;;;;;;;;;5016665;28;20045;-79
2023/07/03 01:52:17;;;;;;;14.32;9.05;;;;;;;;;;5015824;28;20066;-79
2023/07/03 01:54:50;;;;;;;12.60;8.98;;;;;;;;;;5017594;28;20081;-79
2023/07/03 01:57:25;;;;;;;13.25;9.15;;;;;;;;;;5020076;28;20077;-79
2023/07/03 01:59:53;;;;;;;13.35;8.65;;;;;;;;;;5019157;28;20160;-79
2023/07/03 02:02:26;;;;;;;13.27;9.00;;;;;;;;;;5018888;28;20559;-79
2023/07/03 02:04:58;;;;;;;13.90;9.15;;;;;;;;;;5018648;28;20130;-79
2023/07/03 02:07:28;;;;;;;13.43;8.65;;;;;;;;;;5018787;28;20081;-78
2023/07/03 02:09:55;;;;;;;16.42;9.40;;;;;;;;;;5018737;28;20049;-78
2023/07/03 02:12:23;;;;;;;13.98;9.57;;;;;;;;;;5018791;28;20544;-78
2023/07/03 02:14:50;;;;;;;14.80;9.98;;;;;;;;;;5019370;28;20088;-77
2023/07/03 02:17:16;;;;;;;14.43;9.30;;;;;;;;;;5029948;28;20061;-76
2023/07/03 02:19:43;;;;;;;14.43;8.43;;;;;;;;;;5035737;28;20445;-77
2023/07/03 02:22:09;;;;;;;15.10;9.52;;;;;;;;;;5019098;28;20088;-78
2023/07/03 02:24:36;;;;;;;14.45;9.70;;;;;;;;;;5018340;28;20445;-76
2023/07/03 02:27:03;;;;;;;18.58;9.23;;;;;;;;;;5019017;28;20119;-77
2023/07/03 02:29:31;;;;;;;14.73;9.00;;;;;;;;;;5022047;28;20081;-78
2023/07/03 02:31:58;;;;;;;14.77;9.65;;;;;;;;;;5022275;28;20120;-77
2023/07/03 02:34:25;;;;;;;15.23;9.20;;;;;;;;;;5022664;28;20052;-78
2023/07/03 02:36:53;;;;;;;14.45;9.82;;;;;;;;;;5021569;28;20076;-78
2023/07/03 02:41:50;;;;;;;13.18;9.05;;;;;;;;;;5021394;28;20065;-77
2023/07/03 02:44:16;;;;;;;17.13;9.73;;;;;;;;;;5057400;28;20068;-78
2023/07/03 02:46:46;;;;;;;15.43;8.95;;;;;;;;;;5050082;28;20040;-78
2023/07/03 02:49:13;;;;;;;15.80;10.40;;;;;;;;;;5051474;28;20040;-78
2023/07/03 02:51:40;;;;;;;16.27;9.50;;;;;;;;;;5041157;28;20069;-78
2023/07/03 02:54:06;;;;;;;14.18;8.63;;;;;;;;;;5049802;28;20041;-78
2023/07/03 02:56:33;;;;;;;14.40;9.48;;;;;;;;;;5045771;28;20072;-78
2023/07/03 02:59:00;;;;;;;15.50;10.30;;;;;;;;;;5035551;28;20120;-78
2023/07/03 03:01:27;;;;;;;17.08;10.13;;;;;;;;;;5036014;28;20046;-79
2023/07/03 03:03:58;;;;;;;16.38;9.73;;;;;;;;;;5034799;28;20049;-78
2023/07/03 03:06:25;;;;;;;14.32;8.98;;;;;;;;;;5018245;28;20056;-77
2023/07/03 03:08:51;;;;;;;16.08;10.23;;;;;;;;;;5032163;28;20065;-77
2023/07/03 03:11:18;;;;;;;16.60;9.80;;;;;;;;;;5034501;28;20072;-78
2023/07/03 03:13:45;;;;;;;13.77;9.30;;;;;;;;;;5034973;28;20080;-78
2023/07/03 03:16:11;;;;;;;16.42;9.73;;;;;;;;;;5034569;28;20103;-78
2023/07/03 03:18:38;;;;;;;15.73;10.30;;;;;;;;;;5034316;28;20080;-78
2023/07/03 03:21:06;;;;;;;16.48;10.18;;;;;;;;;;5034690;28;20107;-77
2023/07/03 03:23:32;;;;;;;14.75;10.02;;;;;;;;;;5034334;28;20092;-78
2023/07/03 03:25:59;;;;;;;14.30;9.45;;;;;;;;;;5034158;28;20046;-78
2023/07/03 03:28:26;;;;;;;15.27;9.80;;;;;;;;;;5034537;28;20133;-78
2023/07/03 03:30:53;;;;;;;14.65;9.52;;;;;;;;;;5027515;28;20455;-78
2023/07/03 03:33:20;;;;;;;14.32;9.73;;;;;;;;;;5034839;28;20052;-78
2023/07/03 03:35:47;;;;;;;13.68;9.48;;;;;;;;;;5034413;28;20045;-78
2023/07/03 03:38:15;;;;;;;14.95;9.80;;;;;;;;;;5034846;28;20060;-79
2023/07/03 03:40:53;;;;;;;14.60;10.27;;;;;;;;;;5034516;28;20041;-78
2023/07/03 03:43:19;;;;;;;15.45;9.88;;;;;;;;;;5015382;28;20073;-78
2023/07/03 03:45:54;;;;;;;15.65;10.32;;;;;;;;;;5014541;28;20564;-78
2023/07/03 03:48:20;;;;;;;15.10;9.15;;;;;;;;;;5015285;28;20106;-79
2023/07/03 03:50:47;;;;;;;16.00;10.38;;;;;;;;;;5026017;28;20037;-78
2023/07/03 03:53:15;;;;;;;16.17;10.35;;;;;;;;;;5033966;28;20080;-78
2023/07/03 03:55:42;;;;;;;15.65;10.02;;;;;;;;;;5034093;28;20488;-78
2023/07/03 03:58:10;;;;;;;15.82;10.20;;;;;;;;;;5034521;28;20463;-78
2023/07/03 04:00:37;;;;;;;16.50;10.80;;;;;;;;;;5034071;28;20045;-78
2023/07/03 04:03:04;;;;;;;16.08;10.10;;;;;;;;;;5033898;28;20099;-78
2023/07/03 04:05:30;;;;;;;16.38;10.02;;;;;;;;;;5033386;28;20133;-78
2023/07/03 04:07:57;;;;;;;17.38;9.20;;;;;;;;;;5034018;28;20047;-79
2023/07/03 04:10:25;;;;;;;15.50;9.45;;;;;;;;;;5034265;28;20088;-78
2023/07/03 04:12:52;;;;;;;17.75;10.40;;;;;;;;;;5035543;28;20077;-78
2023/07/03 04:15:19;;;;;;;17.48;9.85;;;;;;;;;;5034235;28;20419;-77
2023/07/03 04:17:48;;;;;;;15.65;9.50;;;;;;;;;;5033612;28;20077;-78
2023/07/03 04:20:17;;;;;;;16.08;9.48;;;;;;;;;;5033759;28;20099;-78
2023/07/03 04:22:45;;;;;;;17.70;10.63;;;;;;;;;;5034113;28;20052;-79
2023/07/03 04:25:12;;;;;;;16.75;9.70;;;;;;;;;;5033745;28;20416;-79
2023/07/03 04:27:40;;;;;;;16.20;10.00;;;;;;;;;;5033571;28;20118;-78
2023/07/03 04:30:08;;;;;;;15.48;10.23;;;;;;;;;;5033396;28;20104;-78
2023/07/03 04:32:35;;;;;;;16.55;9.90;;;;;;;;;;5032885;28;20598;-78
2023/07/03 04:35:02;;;;;;;17.35;10.55;;;;;;;;;;5032968;28;20077;-78
2023/07/03 04:37:29;;;;;;;17.08;10.25;;;;;;;;;;5032990;28;20073;-78
2023/07/03 04:39:57;;;;;;;18.27;10.85;;;;;;;;;;5033838;28;20053;-79
2023/07/03 04:42:24;;;;;;;17.15;10.93;;;;;;;;;;5033278;28;20084;-79
2023/07/03 04:44:52;;;;;;;18.23;11.32;;;;;;;;;;5033510;28;20591;-78
2023/07/03 04:47:19;;;;;;;16.70;10.77;;;;;;;;;;5034378;28;20119;-78
2023/07/03 04:49:48;;;;;;;18.30;11.05;;;;;;;;;;5033873;28;20450;-78
2023/07/03 04:52:16;;;;;;;17.02;10.88;;;;;;;;;;5033089;28;20054;-78
2023/07/03 04:54:43;;;;;;;17.02;10.63;;;;;;;;;;5025052;28;20064;-77
2023/07/03 04:57:10;;;;;;;15.70;9.80;;;;;;;;;;5024752;28;20061;-76
2023/07/03 04:59:36;;;;;;;16.70;9.95;;;;;;;;;;5031209;28;20176;-78
2023/07/03 05:02:05;;;;;;;17.05;10.23;;;;;;;;;;5025055;28;20041;-77
2023/07/03 05:04:32;;;;;;;19.23;10.70;;;;;;;;;;5031494;28;20099;-78
2023/07/03 05:06:59;;;;;;;16.92;9.38;;;;;;;;;;5020709;28;20129;-77
2023/07/03 05:09:25;;;;;;;16.20;9.65;;;;;;;;;;5024034;28;20073;-76
2023/07/03 05:11:53;;;;;;;18.05;10.68;;;;;;;;;;5013019;28;20046;-76
2023/07/03 05:14:19;;;;;;;18.23;11.13;;;;;;;;;;5031167;28;20054;-77
2023/07/03 05:16:46;;;;;;;20.25;10.82;;;;;;;;;;5031979;28;20132;-77
2023/07/03 05:19:14;;;;;;;18.17;11.25;;;;;;;;;;5032554;28;20069;-77
2023/07/03 05:21:41;;;;;;;21.05;11.25;;;;;;;;;;5032106;28;20090;-77
2023/07/03 05:24:07;;;;;;;16.73;11.13;;;;;;;;;;5031572;28;20096;-77
2023/07/03 05:26:34;;;;;;;18.90;10.95;;;;;;;;;;5031871;28;20084;-77
2023/07/03 05:29:01;;;;;;;16.35;10.43;;;;;;;;;;5031416;28;20813;-78
2023/07/03 05:31:27;;;;;;;19.40;11.40;;;;;;;;;;5031878;28;20049;-78
2023/07/03 05:33:54;;;;;;;16.52;10.95;;;;;;;;;;5031579;28;20045;-77
2023/07/03 05:36:22;;;;;;;17.60;10.55;;;;;;;;;;5032057;28;20396;-77
2023/07/03 05:38:49;;;;;;;15.73;9.68;;;;;;;;;;5030898;28;20041;-77
2023/07/03 05:41:16;;;;;;;15.85;8.93;;;;;;;;;;5024191;28;20132;-76
2023/07/03 05:43:42;;;;;;;17.90;10.57;;;;;;;;;;5024460;28;20049;-76
2023/07/03 05:46:09;;;;;;;15.10;9.25;;;;;;;;;;5031055;28;20141;-77
2023/07/03 05:48:36;;;;;;;15.27;9.45;;;;;;;;;;5031566;28;20441;-78
2023/07/03 05:51:03;;;;;;;18.35;10.75;;;;;;;;;;5032887;28;20149;-77
2023/07/03 05:53:31;;;;;;;15.95;10.50;;;;;;;;;;5031983;28;20054;-78
2023/07/03 05:55:58;;;;;;;16.48;9.50;;;;;;;;;;5027334;28;20088;-78
2023/07/03 05:58:27;;;;;;;16.85;9.73;;;;;;;;;;5021701;28;20088;-78
2023/07/03 06:00:54;;;;;;;13.82;8.00;;;;;;;;;;5023676;28;20521;-78
2023/07/03 06:03:24;;;;;;;15.55;8.30;;;;;;;;;;5030071;28;20486;-78
2023/07/03 06:05:51;;;;;;;15.40;8.18;;;;;;;;;;5022662;28;20041;-76
2023/07/03 06:08:18;;;;;;;17.63;8.30;;;;;;;;;;5032609;28;20049;-77
2023/07/03 06:10:46;;;;;;;16.48;8.93;;;;;;;;;;5038967;28;20049;-77
2023/07/03 06:13:13;;;;;;;14.40;8.95;;;;;;;;;;5029451;28;20050;-76
2023/07/03 06:15:40;;;;;;;15.32;8.82;;;;;;;;;;5024043;28;20485;-77
2023/07/03 06:18:06;;;;;;;14.40;7.97;;;;;;;;;;5033247;28;20133;-77
2023/07/03 06:20:34;;;;;;;13.25;7.70;;;;;;;;;;5031673;28;20088;-78
2023/07/03 06:23:00;;;;;;;15.73;8.52;;;;;;;;;;5027872;28;20042;-79
2023/07/03 06:25:27;;;;;;;15.10;8.23;;;;;;;;;;5027318;28;20109;-79
2023/07/03 06:27:55;;;;;;;16.02;8.02;;;;;;;;;;5031666;28;20106;-79
2023/07/03 06:30:22;;;;;;;12.57;7.63;;;;;;;;;;5031283;28;20508;-78
2023/07/03 06:32:49;;;;;;;13.65;8.45;;;;;;;;;;5021389;28;20050;-78
2023/07/03 06:35:17;;;;;;;15.98;7.85;;;;;;;;;;5020831;28;20048;-78
2023/07/03 06:37:44;;;;;;;13.63;8.02;;;;;;;;;;5022546;28;20122;-78
2023/07/03 06:40:14;;;;;;;14.73;8.65;;;;;;;;;;5022564;28;20096;-78
2023/07/03 06:42:41;;;;;;;16.00;8.57;;;;;;;;;;5026024;28;20099;-78
2023/07/03 06:45:10;;;;;;;14.60;7.78;;;;;;;;;;5026034;28;20119;-78
2023/07/03 06:47:36;;;;;;;15.63;8.63;;;;;;;;;;5031372;28;20497;-77
2023/07/03 06:50:03;;;;;;;15.32;8.55;;;;;;;;;;5033614;28;20085;-78
2023/07/03 06:52:30;;;;;;;14.30;8.25;;;;;;;;;;5020699;28;20149;-78
2023/07/03 06:54:57;;;;;;;16.88;8.93;;;;;;;;;;5015555;28;20124;-77
2023/07/03 06:57:23;;;;;;;16.17;8.85;;;;;;;;;;5028401;28;20052;-77
2023/07/03 06:59:51;;;;;;;12.48;7.93;;;;;;;;;;5036660;28;20060;-77
2023/07/03 07:02:19;;;;;;;15.85;8.45;;;;;;;;;;5040420;28;20084;-77
2023/07/03 07:04:46;;;;;;;15.65;8.60;;;;;;;;;;5038620;28;20057;-76
2023/07/03 07:07:13;;;;;;;15.60;8.48;;;;;;;;;;5055960;28;20056;-77
2023/07/03 07:09:39;;;;;;;14.48;9.02;;;;;;;;;;5053338;28;20045;-77
2023/07/03 07:12:07;;;;;;;18.33;9.80;;;;;;;;;;5044444;28;20112;-77
2023/07/03 07:14:33;;;;;;;15.52;8.80;;;;;;;;;;5042984;28;20053;-77
2023/07/03 07:17:00;;;;;;;15.07;9.68;;;;;;;;;;5027861;28;20046;-77
2023/07/03 07:19:28;;;;;;;17.55;10.25;;;;;;;;;;5034360;28;20041;-77
2023/07/03 07:21:55;;;;;;;17.45;9.77;;;;;;;;;;5029848;28;20053;-78
2023/07/03 07:24:24;;;;;;;16.70;9.10;;;;;;;;;;5031036;28;20072;-77
2023/07/03 07:26:54;;;;;;;14.75;9.02;;;;;;;;;;5024370;28;20049;-76
2023/07/03 07:29:21;;;;;;;15.55;9.40;;;;;;;;;;5034341;28;20054;-76
2023/07/03 07:31:48;;;;;;;15.38;8.88;;;;;;;;;;5024663;28;20049;-76
2023/07/03 07:34:15;;;;;;;12.52;8.55;;;;;;;;;;5025564;28;20057;-77
2023/07/03 07:36:43;;;;;;;14.60;8.90;;;;;;;;;;5030948;28;20128;-77
2023/07/03 07:39:10;;;;;;;15.73;9.30;;;;;;;;;;5032951;28;20080;-84
2023/07/03 07:41:37;;;;;;;14.90;8.93;;;;;;;;;;5033870;28;20046;-84
2023/07/03 07:44:05;;;;;;;13.82;8.38;;;;;;;;;;5034907;28;20757;-83
2023/07/03 07:46:35;;;;;;;15.73;8.27;;;;;;;;;;5033087;28;20671;-78
2023/07/03 07:49:02;;;;;;;14.30;8.70;;;;;;;;;;5034882;28;20041;-79
2023/07/03 07:51:30;;;;;;;14.02;9.32;;;;;;;;;;5034814;28;20057;-78
2023/07/03 07:53:59;;;;;;;14.50;8.73;;;;;;;;;;5021232;28;20125;-79
2023/07/03 07:56:27;;;;;;;13.52;8.68;;;;;;;;;;5034661;28;20037;-78
2023/07/03 07:58:54;;;;;;;16.45;9.85;;;;;;;;;;5025149;28;20045;-78
2023/07/03 08:01:21;;;;;;;15.30;8.70;;;;;;;;;;5029970;28;20632;-80
2023/07/03 08:03:48;;;;;;;13.70;8.50;;;;;;;;;;5040011;28;20607;-77
2023/07/03 08:06:15;;;;;;;14.45;8.43;;;;;;;;;;5019960;28;20129;-77
2023/07/03 08:08:42;;;;;;;12.90;8.38;;;;;;;;;;5019757;28;20100;-77
2023/07/03 08:11:11;;;;;;;14.95;8.40;;;;;;;;;;5019512;28;20050;-77
2023/07/03 08:13:40;;;;;;;15.23;9.05;;;;;;;;;;5019491;28;20099;-78
2023/07/03 08:16:08;;;;;;;13.63;8.57;;;;;;;;;;5018186;28;20519;-78
2023/07/03 08:18:34;;;;;;;16.00;8.85;;;;;;;;;;5017625;28;20042;-77
2023/07/03 08:21:02;;;;;;;12.93;9.13;;;;;;;;;;5018560;28;20423;-78
2023/07/03 08:23:29;;;;;;;12.70;8.10;;;;;;;;;;5018231;28;20512;-78
2023/07/03 08:25:56;;;;;;;14.68;8.73;;;;;;;;;;5024419;28;20052;-78
2023/07/03 08:28:24;;;;;;;13.68;8.45;;;;;;;;;;5035594;28;20069;-77
2023/07/03 08:30:54;;;;;;;15.75;9.02;;;;;;;;;;5037034;28;20084;-78
2023/07/03 08:33:21;;;;;;;13.23;8.00;;;;;;;;;;5036682;28;20099;-77
2023/07/03 08:35:47;;;;;;;15.80;9.02;;;;;;;;;;5027875;28;20073;-77
2023/07/03 08:38:14;;;;;;;14.32;8.02;;;;;;;;;;5028711;28;20587;-78
2023/07/03 08:40:42;;;;;;;12.45;8.02;;;;;;;;;;5031990;28;20692;-78
2023/07/03 08:43:14;;;;;;;11.65;7.30;;;;;;;;;;5029015;28;20484;-78
2023/07/03 08:45:45;;;;;;;12.00;7.38;;;;;;;;;;5026719;28;20041;-78
2023/07/03 08:48:16;;;;;;;10.18;6.15;;;;;;;;;;5028419;28;20104;-78
2023/07/03 08:50:47;;;;;;;12.20;7.22;;;;;;;;;;5015649;28;20045;-80
2023/07/03 08:53:18;;;;;;;11.55;6.40;;;;;;;;;;5018165;28;20069;-79
2023/07/03 08:55:52;;;;;;;14.68;7.25;;;;;;;;;;5015879;28;20591;-79
2023/07/03 08:58:18;;;;;;;14.10;7.50;;;;;;;;;;5026275;28;20077;-79
2023/07/03 09:00:56;;;;;;;11.32;6.53;;;;;;;;;;5030223;28;20164;-79
2023/07/03 09:03:33;;;;;;;10.93;6.38;;;;;;;;;;5033091;28;20512;-79
2023/07/03 09:06:09;;;;;;;9.38;6.10;;;;;;;;;;5024698;28;20216;-79
2023/07/03 09:08:46;;;;;;;11.23;6.40;;;;;;;;;;5023718;28;20096;-79
2023/07/03 09:11:14;;;;;;;10.48;6.22;;;;;;;;;;5031013;28;20109;-79
2023/07/03 09:13:46;;;;;;;10.82;6.07;;;;;;;;;;5031144;28;20128;-79
2023/07/03 09:16:19;;;;;;;12.30;6.60;;;;;;;;;;5031162;28;20053;-78
2023/07/03 09:18:51;;;;;;;9.70;5.68;;;;;;;;;;5032926;28;20045;-78
2023/07/03 09:21:19;;;;;;;10.00;5.65;;;;;;;;;;5030342;28;20064;-78
2023/07/03 09:23:54;;;;;;;11.10;5.45;;;;;;;;;;5029651;28;20056;-78
2023/07/03 09:26:25;;;;;;;10.52;5.55;;;;;;;;;;5029515;28;20528;-78
2023/07/03 09:28:57;;;;;;;11.13;5.85;;;;;;;;;;5023055;28;20129;-78
2023/07/03 09:31:26;;;;;;;10.13;5.70;;;;;;;;;;5024538;28;20563;-79
2023/07/03 09:33:53;;;;;;;9.80;5.73;;;;;;;;;;5015104;28;20108;-79
2023/07/03 09:36:24;;;;;;;9.55;5.18;;;;;;;;;;5021135;28;20307;-79
2023/07/03 09:38:51;;;;;;;9.60;5.50;;;;;;;;;;5033650;28;20057;-79
2023/07/03 09:41:25;;;;;;;11.13;5.35;;;;;;;;;;5032544;28;20134;-80
2023/07/03 09:43:51;;;;;;;8.00;4.88;;;;;;;;;;5026714;28;20132;-79
2023/07/03 09:46:19;;;;;;;9.23;5.30;;;;;;;;;;5035333;28;20556;-78
2023/07/03 09:48:48;;;;;;;7.63;5.00;;;;;;;;;;5046224;28;20053;-79
2023/07/03 09:51:24;;;;;;;8.57;5.22;;;;;;;;;;5042960;28;20079;-79
2023/07/03 09:53:51;;;;;;;10.40;5.68;;;;;;;;;;5030895;28;20057;-79
2023/07/03 09:56:23;;;;;;;9.32;4.90;;;;;;;;;;5017821;28;20052;-78
2023/07/03 09:58:52;;;;;;;9.15;5.13;;;;;;;;;;5019151;28;20132;-79
2023/07/03 10:01:21;;;;;;;9.85;5.03;;;;;;;;;;5030132;28;20080;-78
2023/07/03 10:04:01;;;;;;;8.27;5.40;;;;;;;;;;5024460;28;20053;-79
2023/07/03 10:06:28;;;;;;;9.27;4.95;;;;;;;;;;5024954;28;20069;-79
2023/07/03 10:09:00;;;;;;;8.40;5.15;;;;;;;;;;5027297;28;20045;-78
2023/07/03 10:11:36;;;;;;;9.10;5.93;;;;;;;;;;5025353;28;20053;-77
2023/07/03 10:14:09;;;;;;;8.85;5.43;;;;;;;;;;5022113;28;20065;-78
2023/07/03 10:16:36;;;;;;;8.05;5.35;;;;;;;;;;5032070;28;20478;-78
2023/07/03 10:19:05;;;;;;;8.43;5.15;;;;;;;;;;5029937;28;20053;-78
2023/07/03 10:21:33;;;;;;;8.00;5.55;;;;;;;;;;5033754;28;20053;-78
2023/07/03 10:24:02;;;;;;;8.48;5.10;;;;;;;;;;5028538;28;20084;-79
2023/07/03 10:26:32;;;;;;;10.50;5.18;;;;;;;;;;5015319;28;20046;-78
2023/07/03 10:29:06;;;;;;;9.65;5.43;;;;;;;;;;5019937;28;20124;-79
2023/07/03 10:31:39;;;;;;;9.40;5.55;;;;;;;;;;5032438;28;20088;-78
2023/07/03 10:34:22;;;;;;;7.85;4.53;;;;;;;;;;5026689;28;20464;-78
2023/07/03 10:36:50;;;;;;;12.95;5.47;;;;;;;;;;5032104;28;20125;-79
2023/07/03 10:39:22;;;;;;;7.95;4.70;;;;;;;;;;5031437;28;20528;-79
2023/07/03 10:41:54;;;;;;;7.78;5.13;;;;;;;;;;5033687;28;20045;-79
2023/07/03 10:44:25;;;;;;;8.27;4.82;;;;;;;;;;5032997;28;20057;-79
2023/07/03 10:46:59;;;;;;;8.32;4.93;;;;;;;;;;5025856;28;20080;-79
2023/07/03 10:49:31;;;;;;;8.15;5.03;;;;;;;;;;5026742;28;20083;-78
2023/07/03 10:52:12;;;;;;;8.60;5.20;;;;;;;;;;5019657;28;20125;-78
2023/07/03 10:54:46;;;;;;;9.63;5.20;;;;;;;;;;5030165;28;20120;-79
2023/07/03 10:57:16;;;;;;;9.45;5.25;;;;;;;;;;5023693;28;20085;-79
2023/07/03 10:59:49;;;;;;;8.88;5.55;;;;;;;;;;5028101;28;20052;-79
2023/07/03 11:02:23;;;;;;;10.18;5.68;;;;;;;;;;5028178;28;20145;-78
2023/07/03 11:04:58;;;;;;;9.02;4.60;;;;;;;;;;5023449;28;20060;-78
2023/07/03 11:07:33;;;;;;;10.55;5.18;;;;;;;;;;5021518;28;20077;-86
2023/07/03 11:10:05;;;;;;;10.18;5.32;;;;;;;;;;5015001;28;20081;-80
2023/07/03 11:12:38;;;;;;;9.75;5.22;;;;;;;;;;5017278;28;20113;-80
2023/07/03 11:15:32;;;;;;;8.95;5.00;;;;;;;;;;5028088;28;20059;-79
2023/07/03 11:18:13;;;;;;;9.75;5.40;;;;;;;;;;5028968;28;20052;-79
2023/07/03 11:20:47;;;;;;;9.95;5.78;;;;;;;;;;5027384;28;20077;-78
2023/07/03 11:23:21;;;;;;;9.98;5.18;;;;;;;;;;5034103;28;20144;-84
2023/07/03 11:25:54;;;;;;;8.60;5.20;;;;;;;;;;5032456;28;20420;-79
2023/07/03 11:28:31;;;;;;;9.13;5.03;;;;;;;;;;5052509;28;20060;-81
2023/07/03 11:31:01;;;;;;;22.25;11.90;;;;;;;;;;5053477;28;20049;-80
2023/07/03 11:33:29;;;;;;;137.57;49.53;;;;;;;;;;5038572;28;20507;-80
2023/07/03 11:36:06;;;;;;;59.05;25.23;;;;;;;;;;5048842;28;20119;-81
2023/07/03 11:38:35;;;;;;;47.92;20.80;;;;;;;;;;5030611;28;20054;-78
2023/07/03 11:41:07;;;;;;;45.78;22.05;;;;;;;;;;5034266;28;20060;-78
2023/07/03 11:43:41;;;;;;;31.90;15.07;;;;;;;;;;5030074;28;20105;-78
2023/07/03 11:46:17;;;;;;;36.75;16.80;;;;;;;;;;5016170;28;20069;-78
2023/07/03 11:48:48;;;;;;;64.97;29.48;;;;;;;;;;5033137;28;20049;-79
2023/07/03 11:51:29;;;;;;;28.42;12.85;;;;;;;;;;5038225;28;20045;-79
2023/07/03 11:53:57;;;;;;;59.55;23.15;;;;;;;;;;5023510;28;20042;-77
2023/07/03 11:56:49;;;;;;;38.72;17.63;;;;;;;;;;5030817;28;20045;-76
2023/07/03 11:59:25;;;;;;;22.55;11.35;;;;;;;;;;5022234;28;20057;-77
2023/07/03 12:01:52;;;;;;;39.28;17.05;;;;;;;;;;5032280;28;20052;-76
2023/07/03 12:04:50;;;;;;;19.83;8.50;;;;;;;;;;5023452;28;20074;-78
2023/07/03 12:07:49;;;;;;;21.63;11.15;;;;;;;;;;5021106;28;20046;-76
2023/07/03 12:10:39;;;;;;;17.60;9.00;;;;;;;;;;5031995;28;20057;-77
2023/07/03 12:13:28;;;;;;;11.82;5.85;;;;;;;;;;5016915;28;20054;-76
2023/07/03 12:15:56;;;;;;;13.13;7.32;;;;;;;;;;5029629;28;20055;-78
2023/07/03 12:18:23;;;;;;;17.58;10.43;;;;;;;;;;5020988;28;20073;-76
2023/07/03 12:20:57;;;;;;;10.77;6.22;;;;;;;;;;5031010;28;20479;-76
2023/07/03 12:23:40;;;;;;;9.82;6.20;;;;;;;;;;5031054;28;20049;-76
2023/07/03 12:26:09;;;;;;;13.40;6.80;;;;;;;;;;5015672;28;20120;-76
2023/07/03 12:28:37;;;;;;;9.98;6.40;;;;;;;;;;5028551;28;20136;-76
2023/07/03 12:31:18;;;;;;;11.25;5.97;;;;;;;;;;5024712;28;20161;-77
2023/07/03 12:33:54;;;;;;;9.48;5.60;;;;;;;;;;5028569;28;20046;-76
2023/07/03 12:36:22;;;;;;;10.75;6.78;;;;;;;;;;5031212;28;20060;-76
2023/07/03 12:38:50;;;;;;;11.35;5.78;;;;;;;;;;5030237;28;20488;-75
2023/07/03 12:41:23;;;;;;;10.70;6.65;;;;;;;;;;5031705;28;20053;-75
2023/07/03 12:43:50;;;;;;;9.93;5.57;;;;;;;;;;5024481;28;20520;-76
2023/07/03 12:46:30;;;;;;;9.35;5.55;;;;;;;;;;5025399;28;20050;-77
2023/07/03 12:49:09;;;;;;;9.20;5.80;;;;;;;;;;5019442;28;20501;-76
2023/07/03 12:51:38;;;;;;;11.83;6.13;;;;;;;;;;5026364;28;20184;-75
2023/07/03 12:54:07;;;;;;;8.57;5.28;;;;;;;;;;5029253;28;20195;-76
2023/07/03 12:56:35;;;;;;;9.45;5.55;;;;;;;;;;5029243;28;20492;-76
2023/07/03 12:59:03;;;;;;;10.13;5.68;;;;;;;;;;5026476;28;20166;-75
2023/07/03 13:01:31;;;;;;;8.65;5.72;;;;;;;;;;5027737;28;20425;-77
2023/07/03 13:03:58;;;;;;;9.13;5.15;;;;;;;;;;5026493;28;20124;-76
2023/07/03 13:06:28;;;;;;;9.73;4.85;;;;;;;;;;5025197;28;20057;-76
2023/07/03 13:08:55;;;;;;;;;;;;;;;;;;5023403;28;20050;-75
2023/07/03 13:11:37;;;;;;;9.77;5.35;;;;;;;;;;5025128;28;19927;-74
2023/07/03 13:14:10;;;;;;;10.00;5.80;;;;;;;;;;5033077;28;20129;-76
2023/07/03 13:16:37;;;;;;;9.88;5.25;;;;;;;;;;5028980;28;20120;-75
2023/07/03 13:19:04;;;;;;;8.85;5.20;;;;;;;;;;5019737;28;20049;-76
2023/07/03 13:21:32;;;;;;;9.13;5.40;;;;;;;;;;5013843;28;20046;-77
2023/07/03 13:24:10;;;;;;;8.02;5.30;;;;;;;;;;5014663;28;20532;-77
2023/07/03 13:26:38;;;;;;;8.35;5.53;;;;;;;;;;5032099;28;20045;-78
2023/07/03 13:29:06;;;;;;;8.15;5.10;;;;;;;;;;5022519;28;20081;-76
2023/07/03 13:31:35;;;;;;;9.30;5.53;;;;;;;;;;5022608;28;20049;-77
2023/07/03 13:34:15;;;;;;;8.05;4.70;;;;;;;;;;5022711;28;20061;-77
2023/07/03 13:36:45;;;;;;;7.63;4.97;;;;;;;;;;5022362;28;20577;-78
2023/07/03 13:39:14;;;;;;;8.40;4.93;;;;;;;;;;5022428;28;20077;-76
2023/07/03 13:41:43;;;;;;;8.93;4.88;;;;;;;;;;5030199;28;20108;-77
2023/07/03 13:44:12;;;;;;;8.82;5.50;;;;;;;;;;5031112;28;20049;-77
2023/07/03 13:46:40;;;;;;;8.13;5.18;;;;;;;;;;5030863;28;20046;-77
2023/07/03 13:49:07;;;;;;;8.23;5.30;;;;;;;;;;5022326;28;20120;-77
2023/07/03 13:51:35;;;;;;;8.10;5.50;;;;;;;;;;5033920;28;20053;-76
2023/07/03 13:54:02;;;;;;;9.88;5.28;;;;;;;;;;5039736;28;20251;-77
2023/07/03 13:56:30;;;;;;;8.68;4.90;;;;;;;;;;5037657;28;20084;-76
2023/07/03 13:58:58;;;;;;;7.85;4.82;;;;;;;;;;5035040;28;20103;-76
2023/07/03 14:01:24;;;;;;;9.95;5.72;;;;;;;;;;5036063;28;20073;-76
2023/07/03 14:03:51;;;;;;;10.85;5.10;;;;;;;;;;5025975;28;20100;-77
2023/07/03 14:06:20;;;;;;;9.13;5.00;;;;;;;;;;5016790;28;20045;-77
2023/07/03 14:08:47;;;;;;;9.48;5.53;;;;;;;;;;5016006;28;20054;-76
2023/07/03 14:11:14;;;;;;;9.20;5.57;;;;;;;;;;5015517;28;20572;-77
2023/07/03 14:13:43;;;;;;;11.02;5.70;;;;;;;;;;5014874;28;20049;-76
2023/07/03 14:16:11;;;;;;;9.07;5.32;;;;;;;;;;5015198;28;20501;-76
2023/07/03 14:18:37;;;;;;;10.27;5.63;;;;;;;;;;5015248;28;20123;-77
2023/07/03 14:21:04;;;;;;;8.43;5.10;;;;;;;;;;5014373;28;20643;-75
2023/07/03 14:23:31;;;;;;;9.00;5.50;;;;;;;;;;5014876;28;20394;-77
2023/07/03 14:25:58;;;;;;;9.13;5.28;;;;;;;;;;5014007;28;20697;-77
2023/07/03 14:28:25;;;;;;;11.70;5.45;;;;;;;;;;5014454;28;20568;-76
2023/07/03 14:30:53;;;;;;;10.38;5.22;;;;;;;;;;5032795;28;20053;-76
2023/07/03 14:33:21;;;;;;;9.40;5.32;;;;;;;;;;5034370;28;20099;-76
2023/07/03 14:35:48;;;;;;;6.72;5.15;;;;;;;;;;5033712;28;20121;-77
2023/07/03 14:38:15;;;;;;;13.05;5.53;;;;;;;;;;5034588;28;20068;-77
2023/07/03 14:40:42;;;;;;;11.98;6.07;;;;;;;;;;5033307;28;20043;-77
2023/07/03 14:43:09;;;;;;;10.35;5.80;;;;;;;;;;5033303;28;20457;-77
2023/07/03 14:45:36;;;;;;;8.68;5.57;;;;;;;;;;5033176;28;20049;-77